createdAt,value
2018-03-17T00:00:29.436Z,6.3
2018-03-17T00:01:30.827Z,6.4
2018-03-17T00:02:32.208Z,6.3
2018-03-17T00:03:33.614Z,6.3
2018-03-17T00:04:35.021Z,6.3
2018-03-17T00:05:36.431Z,6.2
2018-03-17T00:06:37.909Z,6.2
2018-03-17T00:07:39.320Z,6.1
2018-03-17T00:08:40.761Z,6.4
2018-03-17T00:09:42.165Z,6.3
2018-03-17T00:10:43.573Z,6.4
2018-03-17T00:11:44.966Z,6.4
2018-03-17T00:12:46.360Z,6.3
2018-03-17T00:13:47.750Z,6.3
2018-03-17T00:14:49.139Z,6.3
2018-03-17T00:15:50.520Z,6.3
2018-03-17T00:16:51.927Z,6.2
2018-03-17T00:17:53.317Z,6.2
2018-03-17T00:18:54.711Z,6.1
2018-03-17T00:19:56.110Z,6.1
2018-03-17T00:20:57.508Z,6.0
2018-03-17T00:21:58.895Z,5.9
2018-03-17T00:23:00.282Z,5.8
2018-03-17T00:24:01.684Z,5.9
2018-03-17T00:25:03.089Z,5.9
2018-03-17T00:26:04.482Z,5.9
2018-03-17T00:27:05.983Z,5.8
2018-03-17T00:28:07.459Z,5.7
2018-03-17T00:29:08.836Z,5.8
2018-03-17T00:30:10.240Z,6.0
2018-03-17T00:31:11.654Z,5.9
2018-03-17T00:32:13.127Z,5.9
2018-03-17T00:33:14.521Z,5.9
2018-03-17T00:34:15.912Z,5.9
2018-03-17T00:35:17.383Z,5.9
2018-03-17T00:36:18.799Z,5.9
2018-03-17T00:37:20.183Z,6.1
2018-03-17T00:38:21.636Z,6.1
2018-03-17T00:39:23.059Z,5.9
2018-03-17T00:40:24.476Z,5.9
2018-03-17T00:41:25.866Z,5.9
2018-03-17T00:42:27.286Z,5.9
2018-03-17T00:43:28.672Z,6.0
2018-03-17T00:44:30.081Z,6.1
2018-03-17T00:45:31.498Z,6.1
2018-03-17T00:46:32.885Z,5.8
2018-03-17T00:47:34.280Z,5.9
2018-03-17T00:48:35.668Z,5.9
2018-03-17T00:49:37.069Z,5.9
2018-03-17T00:50:38.505Z,5.8
2018-03-17T00:51:39.911Z,5.9
2018-03-17T00:52:41.299Z,5.8
2018-03-17T00:53:42.702Z,5.9
2018-03-17T00:54:44.089Z,5.8
2018-03-17T00:55:45.528Z,5.7
2018-03-17T00:56:46.876Z,5.5
2018-03-17T00:57:48.269Z,5.5
2018-03-17T00:58:49.720Z,5.5
2018-03-17T00:59:51.115Z,5.6
2018-03-17T01:00:52.511Z,5.8
2018-03-17T01:01:53.933Z,5.8
2018-03-17T01:02:55.349Z,5.8
2018-03-17T01:03:56.737Z,5.9
2018-03-17T01:04:58.141Z,5.8
2018-03-17T01:05:59.525Z,5.9
2018-03-17T01:07:00.926Z,5.7
2018-03-17T01:08:02.331Z,5.8
2018-03-17T01:09:03.716Z,5.8
2018-03-17T01:10:05.164Z,5.8
2018-03-17T01:11:06.564Z,5.7
2018-03-17T01:12:07.960Z,5.7
2018-03-17T01:13:09.361Z,5.7
2018-03-17T01:14:10.754Z,5.7
2018-03-17T01:15:12.198Z,5.8
2018-03-17T01:16:13.535Z,5.9
2018-03-17T01:17:14.922Z,5.8
2018-03-17T01:18:16.327Z,5.7
2018-03-17T01:19:17.691Z,5.8
2018-03-17T01:20:19.088Z,5.6
2018-03-17T01:21:20.476Z,5.6
2018-03-17T01:22:21.875Z,5.6
2018-03-17T01:23:23.267Z,5.7
2018-03-17T01:24:24.677Z,5.6
2018-03-17T01:25:26.086Z,5.7
2018-03-17T01:26:27.476Z,5.6
2018-03-17T01:27:28.865Z,5.3
2018-03-17T01:28:30.263Z,5.6
2018-03-17T01:29:31.658Z,5.5
2018-03-17T01:30:33.100Z,5.6
2018-03-17T01:31:34.496Z,5.6
2018-03-17T01:32:35.887Z,5.7
2018-03-17T01:33:37.280Z,5.7
2018-03-17T01:34:38.664Z,5.8
2018-03-17T01:35:40.070Z,5.7
2018-03-17T01:36:41.470Z,5.5
2018-03-17T01:37:42.854Z,5.5
2018-03-17T01:38:44.263Z,5.7
2018-03-17T01:39:45.702Z,5.7
2018-03-17T01:40:47.100Z,5.6
2018-03-17T01:41:48.493Z,5.7
2018-03-17T01:42:49.878Z,5.6
2018-03-17T01:43:51.289Z,5.6
2018-03-17T01:44:52.685Z,5.5
2018-03-17T01:45:54.081Z,5.5
2018-03-17T01:46:55.473Z,5.4
2018-03-17T01:47:56.868Z,5.4
2018-03-17T01:48:58.258Z,5.4
2018-03-17T01:49:59.647Z,5.4
2018-03-17T01:51:01.112Z,5.4
2018-03-17T01:52:02.515Z,5.4
2018-03-17T01:53:03.899Z,5.4
2018-03-17T01:54:05.288Z,5.4
2018-03-17T01:55:06.671Z,5.4
2018-03-17T01:56:08.060Z,5.4
2018-03-17T01:57:09.455Z,5.4
2018-03-17T01:58:10.858Z,5.4
2018-03-17T01:59:12.299Z,5.3
2018-03-17T02:00:13.690Z,5.4
2018-03-17T02:01:15.099Z,5.5
2018-03-17T02:02:16.507Z,5.4
2018-03-17T02:03:17.893Z,5.5
2018-03-17T02:04:19.301Z,5.5
2018-03-17T02:05:20.683Z,5.3
2018-03-17T02:06:22.090Z,5.4
2018-03-17T02:07:23.492Z,5.4
2018-03-17T02:08:24.885Z,5.2
2018-03-17T02:09:26.277Z,5.3
2018-03-17T02:10:27.685Z,5.3
2018-03-17T02:11:29.126Z,5.3
2018-03-17T02:12:30.513Z,5.3
2018-03-17T02:13:31.944Z,5.1
2018-03-17T02:14:33.343Z,5.2
2018-03-17T02:15:34.740Z,5.2
2018-03-17T02:16:36.168Z,5.3
2018-03-17T02:17:37.531Z,5.1
2018-03-17T02:18:38.923Z,5.2
2018-03-17T02:19:40.334Z,5.3
2018-03-17T02:20:41.766Z,5.4
2018-03-17T02:21:43.163Z,5.4
2018-03-17T02:22:44.661Z,5.4
2018-03-17T02:23:46.058Z,5.3
2018-03-17T02:24:47.443Z,5.2
2018-03-17T02:25:48.829Z,5.1
2018-03-17T02:26:50.218Z,5.2
2018-03-17T02:27:51.627Z,5.2
2018-03-17T02:28:53.045Z,5.3
2018-03-17T02:29:54.441Z,5.2
2018-03-17T02:30:55.827Z,5.2
2018-03-17T02:31:57.249Z,5.2
2018-03-17T02:32:58.637Z,5.4
2018-03-17T02:34:00.026Z,5.1
2018-03-17T02:35:01.418Z,5.1
2018-03-17T02:36:02.830Z,5.2
2018-03-17T02:37:04.216Z,5.3
2018-03-17T02:38:05.599Z,5.2
2018-03-17T02:39:06.993Z,5.2
2018-03-17T02:40:08.442Z,5.2
2018-03-17T02:41:09.849Z,5.1
2018-03-17T02:42:11.259Z,5.2
2018-03-17T02:43:12.707Z,5.1
2018-03-17T02:44:14.095Z,5.2
2018-03-17T02:45:15.526Z,5.3
2018-03-17T02:46:16.919Z,5.1
2018-03-17T02:47:18.340Z,5.2
2018-03-17T02:48:19.749Z,5.2
2018-03-17T02:49:21.169Z,5.3
2018-03-17T02:50:22.588Z,5.1
2018-03-17T02:51:23.973Z,4.7
2018-03-17T02:52:25.356Z,4.9
2018-03-17T02:53:26.764Z,4.9
2018-03-17T02:54:28.157Z,5.1
2018-03-17T02:55:29.556Z,5.1
2018-03-17T02:56:30.947Z,5.0
2018-03-17T02:57:32.335Z,5.3
2018-03-17T02:58:33.715Z,5.3
2018-03-17T02:59:35.103Z,5.1
2018-03-17T03:00:36.492Z,5.2
2018-03-17T03:01:37.883Z,5.3
2018-03-17T03:02:39.277Z,5.2
2018-03-17T03:03:40.762Z,5.2
2018-03-17T03:04:42.163Z,5.2
2018-03-17T03:05:43.598Z,5.2
2018-03-17T03:06:44.963Z,5.2
2018-03-17T03:07:46.358Z,5.1
2018-03-17T03:08:47.745Z,5.0
2018-03-17T03:09:49.137Z,5.0
2018-03-17T03:10:50.515Z,5.1
2018-03-17T03:11:51.913Z,5.1
2018-03-17T03:12:53.301Z,5.1
2018-03-17T03:13:54.701Z,5.1
2018-03-17T03:14:56.120Z,5.1
2018-03-17T03:15:57.509Z,5.2
2018-03-17T03:16:58.916Z,5.1
2018-03-17T03:18:00.328Z,5.1
2018-03-17T03:19:01.711Z,5.1
2018-03-17T03:20:03.103Z,5.0
2018-03-17T03:21:04.525Z,4.9
2018-03-17T03:22:05.910Z,5.0
2018-03-17T03:23:07.298Z,4.9
2018-03-17T03:24:08.794Z,5.0
2018-03-17T03:25:10.200Z,4.9
2018-03-17T03:26:11.588Z,5.1
2018-03-17T03:27:12.971Z,5.0
2018-03-17T03:28:14.353Z,5.0
2018-03-17T03:29:15.750Z,4.9
2018-03-17T03:30:17.153Z,4.9
2018-03-17T03:31:18.551Z,5.1
2018-03-17T03:32:19.956Z,5.1
2018-03-17T03:33:21.364Z,5.2
2018-03-17T03:34:22.763Z,4.9
2018-03-17T03:35:24.172Z,5.1
2018-03-17T03:36:25.570Z,5.0
2018-03-17T03:37:26.960Z,5.1
2018-03-17T03:38:28.350Z,5.2
2018-03-17T03:39:29.742Z,5.1
2018-03-17T03:40:31.133Z,5.1
2018-03-17T03:41:32.530Z,5.0
2018-03-17T03:42:33.925Z,5.0
2018-03-17T03:43:35.342Z,5.0
2018-03-17T03:44:36.759Z,5.1
2018-03-17T03:45:38.196Z,4.9
2018-03-17T03:46:39.570Z,5.0
2018-03-17T03:47:40.970Z,5.2
2018-03-17T03:48:42.359Z,5.0
2018-03-17T03:49:43.767Z,5.0
2018-03-17T03:50:45.161Z,4.9
2018-03-17T03:51:46.562Z,4.9
2018-03-17T03:52:47.969Z,5.0
2018-03-17T03:53:49.360Z,5.1
2018-03-17T03:54:50.753Z,5.0
2018-03-17T03:55:52.246Z,5.1
2018-03-17T03:56:53.634Z,5.1
2018-03-17T03:57:55.040Z,5.2
2018-03-17T03:58:56.417Z,5.1
2018-03-17T03:59:57.817Z,4.9
2018-03-17T04:00:59.200Z,5.1
2018-03-17T04:02:00.604Z,5.1
2018-03-17T04:03:02.001Z,5.1
2018-03-17T04:04:03.386Z,5.2
2018-03-17T04:05:04.850Z,5.2
2018-03-17T04:06:06.230Z,5.2
2018-03-17T04:07:07.621Z,5.1
2018-03-17T04:08:09.025Z,5.2
2018-03-17T04:09:10.417Z,5.1
2018-03-17T04:10:11.813Z,5.3
2018-03-17T04:11:13.191Z,5.2
2018-03-17T04:12:14.577Z,5.1
2018-03-17T04:13:15.978Z,5.3
2018-03-17T04:14:17.388Z,5.3
2018-03-17T04:15:18.792Z,5.2
2018-03-17T04:16:20.301Z,5.2
2018-03-17T04:17:21.706Z,5.1
2018-03-17T04:18:23.106Z,5.1
2018-03-17T04:19:24.497Z,5.1
2018-03-17T04:20:25.906Z,5.1
2018-03-17T04:21:27.303Z,5.1
2018-03-17T04:22:28.688Z,5.2
2018-03-17T04:23:30.103Z,5.2
2018-03-17T04:24:31.509Z,5.1
2018-03-17T04:25:32.890Z,5.1
2018-03-17T04:26:34.288Z,5.2
2018-03-17T04:27:35.673Z,5.4
2018-03-17T04:28:37.086Z,5.4
2018-03-17T04:29:38.498Z,5.3
2018-03-17T04:30:39.894Z,5.3
2018-03-17T04:31:41.286Z,5.3
2018-03-17T04:32:42.666Z,5.1
2018-03-17T04:33:44.053Z,5.1
2018-03-17T04:34:45.464Z,5.1
2018-03-17T04:35:46.853Z,5.3
2018-03-17T04:36:48.318Z,5.2
2018-03-17T04:37:49.713Z,5.3
2018-03-17T04:38:51.129Z,5.2
2018-03-17T04:39:52.535Z,5.2
2018-03-17T04:40:53.937Z,5.2
2018-03-17T04:41:55.350Z,5.3
2018-03-17T04:42:56.738Z,5.2
2018-03-17T04:43:58.143Z,5.2
2018-03-17T04:44:59.571Z,5.3
2018-03-17T04:46:00.955Z,5.2
2018-03-17T04:47:02.378Z,5.3
2018-03-17T04:48:04.002Z,5.1
2018-03-17T04:49:05.426Z,5.2
2018-03-17T04:50:06.845Z,5.2
2018-03-17T04:51:08.236Z,5.2
2018-03-17T04:52:09.643Z,5.2
2018-03-17T04:53:11.039Z,5.1
2018-03-17T04:54:12.560Z,5.3
2018-03-17T04:55:13.944Z,5.2
2018-03-17T04:56:15.333Z,5.2
2018-03-17T04:57:16.730Z,5.2
2018-03-17T04:58:18.121Z,5.3
2018-03-17T04:59:19.533Z,5.4
2018-03-17T05:00:20.918Z,5.2
2018-03-17T05:01:22.302Z,5.2
2018-03-17T05:02:23.691Z,5.1
2018-03-17T05:03:25.098Z,5.2
2018-03-17T05:04:26.529Z,5.2
2018-03-17T05:05:27.922Z,5.3
2018-03-17T05:06:29.324Z,5.2
2018-03-17T05:07:30.751Z,5.3
2018-03-17T05:08:32.230Z,5.2
2018-03-17T05:09:33.639Z,5.2
2018-03-17T05:10:35.042Z,5.2
2018-03-17T05:11:36.428Z,5.0
2018-03-17T05:12:37.833Z,4.9
2018-03-17T05:13:39.233Z,5.0
2018-03-17T05:14:40.644Z,5.1
2018-03-17T05:15:42.031Z,5.1
2018-03-17T05:16:43.415Z,5.1
2018-03-17T05:17:44.842Z,5.1
2018-03-17T05:18:46.239Z,5.2
2018-03-17T05:20:27.216Z,5.0
2018-03-17T05:21:28.602Z,5.1
2018-03-17T05:22:29.994Z,4.9
2018-03-17T05:23:31.384Z,4.9
2018-03-17T05:24:32.772Z,5.1
2018-03-17T05:25:34.160Z,5.1
2018-03-17T05:26:35.543Z,5.2
2018-03-17T05:27:37.003Z,5.1
2018-03-17T05:28:38.374Z,5.1
2018-03-17T05:29:39.760Z,5.2
2018-03-17T05:30:41.152Z,5.1
2018-03-17T05:31:42.535Z,5.1
2018-03-17T05:32:43.927Z,5.2
2018-03-17T05:33:45.325Z,5.1
2018-03-17T05:34:46.732Z,5.1
2018-03-17T05:35:48.174Z,5.0
2018-03-17T05:36:49.586Z,5.1
2018-03-17T05:37:50.960Z,5.1
2018-03-17T05:38:52.356Z,4.9
2018-03-17T05:39:53.758Z,5.0
2018-03-17T05:40:55.144Z,4.9
2018-03-17T05:41:56.531Z,5.0
2018-03-17T05:42:57.939Z,5.1
2018-03-17T05:43:59.323Z,5.1
2018-03-17T05:45:00.733Z,5.0
2018-03-17T05:46:02.135Z,5.1
2018-03-17T05:47:03.532Z,5.1
2018-03-17T05:48:04.982Z,5.2
2018-03-17T05:49:06.366Z,5.3
2018-03-17T05:50:07.764Z,5.3
2018-03-17T05:51:09.156Z,5.1
2018-03-17T05:52:10.572Z,5.2
2018-03-17T05:53:11.999Z,5.2
2018-03-17T05:54:13.416Z,5.2
2018-03-17T05:55:14.812Z,5.4
2018-03-17T05:56:16.199Z,5.4
2018-03-17T05:57:17.596Z,5.4
2018-03-17T05:58:18.981Z,5.4
2018-03-17T05:59:20.381Z,5.3
2018-03-17T06:00:21.768Z,5.3
2018-03-17T06:01:23.155Z,5.1
2018-03-17T06:02:24.552Z,5.1
2018-03-17T06:03:25.948Z,5.1
2018-03-17T06:04:27.340Z,5.2
2018-03-17T06:05:28.732Z,5.2
2018-03-17T06:06:30.122Z,5.2
2018-03-17T06:07:31.520Z,5.2
2018-03-17T06:08:33.026Z,5.4
2018-03-17T06:09:34.420Z,5.4
2018-03-17T06:10:35.844Z,5.6
2018-03-17T06:11:37.225Z,5.8
2018-03-17T06:12:38.621Z,5.7
2018-03-17T06:13:40.024Z,5.7
2018-03-17T06:14:41.428Z,5.7
2018-03-17T06:15:42.836Z,5.7
2018-03-17T06:16:44.231Z,5.8
2018-03-17T06:17:45.630Z,5.6
2018-03-17T06:18:47.027Z,5.5
2018-03-17T06:19:48.468Z,5.4
2018-03-17T06:20:49.870Z,5.4
2018-03-17T06:21:51.263Z,5.6
2018-03-17T06:22:52.687Z,5.7
2018-03-17T06:23:54.279Z,5.7
2018-03-17T06:24:55.721Z,5.5
2018-03-17T06:25:57.193Z,5.6
2018-03-17T06:26:58.586Z,5.7
2018-03-17T06:27:59.999Z,5.7
2018-03-17T06:29:01.390Z,5.7
2018-03-17T06:30:02.806Z,5.6
2018-03-17T06:31:04.219Z,5.9
2018-03-17T06:32:05.616Z,5.9
2018-03-17T06:33:07.014Z,6.0
2018-03-17T06:34:08.402Z,6.3
2018-03-17T06:35:09.793Z,6.3
2018-03-17T06:36:11.207Z,6.2
2018-03-17T06:37:12.597Z,6.2
2018-03-17T06:38:13.996Z,6.3
2018-03-17T06:39:15.409Z,6.3
2018-03-17T06:40:16.910Z,6.2
2018-03-17T06:41:18.312Z,6.3
2018-03-17T06:42:19.720Z,6.3
2018-03-17T06:43:21.114Z,6.4
2018-03-17T06:44:22.537Z,6.5
2018-03-17T06:45:23.940Z,6.4
2018-03-17T06:46:25.373Z,6.4
2018-03-17T06:47:26.780Z,6.3
2018-03-17T06:48:28.174Z,6.4
2018-03-17T06:49:29.565Z,6.3
2018-03-17T06:50:30.979Z,6.4
2018-03-17T06:51:32.511Z,6.4
2018-03-17T06:52:33.915Z,6.4
2018-03-17T06:53:35.319Z,6.5
2018-03-17T06:54:36.730Z,6.5
2018-03-17T06:55:38.121Z,6.6
2018-03-17T06:56:39.519Z,6.6
2018-03-17T06:57:40.918Z,6.6
2018-03-17T06:58:42.308Z,6.4
2018-03-17T06:59:43.719Z,6.3
2018-03-17T07:00:45.238Z,6.4
2018-03-17T07:01:46.635Z,6.5
2018-03-17T07:02:48.031Z,6.4
2018-03-17T07:03:49.430Z,6.4
2018-03-17T07:04:50.852Z,6.3
2018-03-17T07:05:52.285Z,6.3
2018-03-17T07:06:53.721Z,6.4
2018-03-17T07:07:55.102Z,6.3
2018-03-17T07:08:56.514Z,6.4
2018-03-17T07:09:57.902Z,6.4
2018-03-17T07:10:59.296Z,6.5
2018-03-17T07:12:00.823Z,6.5
2018-03-17T07:13:02.212Z,6.4
2018-03-17T07:14:03.608Z,6.4
2018-03-17T07:15:05.003Z,6.5
2018-03-17T07:16:06.393Z,6.5
2018-03-17T07:17:07.792Z,6.5
2018-03-17T07:18:09.209Z,6.6
2018-03-17T07:19:10.661Z,6.7
2018-03-17T07:20:12.045Z,6.6
2018-03-17T07:21:13.469Z,6.6
2018-03-17T07:22:14.874Z,6.5
2018-03-17T07:23:16.352Z,6.6
2018-03-17T07:24:17.743Z,6.7
2018-03-17T07:25:19.161Z,6.6
2018-03-17T07:26:20.527Z,6.6
2018-03-17T07:27:21.934Z,6.7
2018-03-17T07:28:23.327Z,6.6
2018-03-17T07:29:24.723Z,6.5
2018-03-17T07:30:26.130Z,6.6
2018-03-17T07:31:27.516Z,6.6
2018-03-17T07:32:28.945Z,6.6
2018-03-17T07:33:30.346Z,6.6
2018-03-17T07:34:31.737Z,6.6
2018-03-17T07:35:33.136Z,6.6
2018-03-17T07:36:34.534Z,6.6
2018-03-17T07:37:35.924Z,6.7
2018-03-17T07:38:37.322Z,6.6
2018-03-17T07:39:38.741Z,6.6
2018-03-17T07:40:40.123Z,6.8
2018-03-17T07:41:41.530Z,6.9
2018-03-17T07:42:42.927Z,6.8
2018-03-17T07:43:44.434Z,6.6
2018-03-17T07:44:45.841Z,6.6
2018-03-17T07:45:47.239Z,6.7
2018-03-17T07:46:48.621Z,6.7
2018-03-17T07:47:50.031Z,6.8
2018-03-17T07:48:51.449Z,6.8
2018-03-17T07:49:52.834Z,6.9
2018-03-17T07:50:54.228Z,7.0
2018-03-17T07:51:55.663Z,7.0
2018-03-17T07:52:57.063Z,7.0
2018-03-17T07:53:58.467Z,6.9
2018-03-17T07:54:59.872Z,7.0
2018-03-17T07:56:01.276Z,7.0
2018-03-17T07:57:02.672Z,7.0
2018-03-17T07:58:04.090Z,7.0
2018-03-17T07:59:05.481Z,6.8
2018-03-17T08:00:06.881Z,6.8
2018-03-17T08:01:08.273Z,6.9
2018-03-17T08:02:09.664Z,6.9
2018-03-17T08:03:11.075Z,6.8
2018-03-17T08:04:12.515Z,6.9
2018-03-17T08:05:13.910Z,6.8
2018-03-17T08:06:15.331Z,6.8
2018-03-17T08:07:16.799Z,6.8
2018-03-17T08:08:18.144Z,7.0
2018-03-17T08:09:19.547Z,6.9
2018-03-17T08:10:20.963Z,6.9
2018-03-17T08:11:22.362Z,7.0
2018-03-17T08:12:23.775Z,7.1
2018-03-17T08:13:25.215Z,7.3
2018-03-17T08:14:26.630Z,7.1
2018-03-17T08:15:28.122Z,7.2
2018-03-17T08:16:29.522Z,7.2
2018-03-17T08:17:30.962Z,7.3
2018-03-17T08:18:32.345Z,7.5
2018-03-17T08:19:33.752Z,7.4
2018-03-17T08:20:35.137Z,7.5
2018-03-17T08:21:36.540Z,7.3
2018-03-17T08:22:37.954Z,7.4
2018-03-17T08:23:39.359Z,7.3
2018-03-17T08:24:40.750Z,7.2
2018-03-17T08:25:42.144Z,7.3
2018-03-17T08:26:43.536Z,7.5
2018-03-17T08:27:44.953Z,7.6
2018-03-17T08:28:46.369Z,7.8
2018-03-17T08:29:47.781Z,7.7
2018-03-17T08:30:49.189Z,7.7
2018-03-17T08:31:50.577Z,7.6
2018-03-17T08:32:51.968Z,7.7
2018-03-17T08:33:53.366Z,7.8
2018-03-17T08:34:54.771Z,7.9
2018-03-17T08:35:56.230Z,7.8
2018-03-17T08:36:57.623Z,7.8
2018-03-17T08:37:59.023Z,7.9
2018-03-17T08:39:00.419Z,7.9
2018-03-17T08:40:01.830Z,8.0
2018-03-17T08:41:03.242Z,7.7
2018-03-17T08:42:04.636Z,7.5
2018-03-17T08:43:06.028Z,7.5
2018-03-17T08:44:07.427Z,7.4
2018-03-17T08:45:08.821Z,7.5
2018-03-17T08:46:10.236Z,7.5
2018-03-17T08:47:11.702Z,7.4
2018-03-17T08:48:13.108Z,7.3
2018-03-17T08:49:14.496Z,7.2
2018-03-17T08:50:15.891Z,7.0
2018-03-17T08:51:17.306Z,7.1
2018-03-17T08:52:18.713Z,7.2
2018-03-17T08:53:20.092Z,7.1
2018-03-17T08:54:21.491Z,7.2
2018-03-17T08:55:22.897Z,7.2
2018-03-17T08:56:24.287Z,7.3
2018-03-17T08:57:25.706Z,7.4
2018-03-17T08:58:27.117Z,7.3
2018-03-17T08:59:28.518Z,7.3
2018-03-17T09:00:29.904Z,7.5
2018-03-17T09:02:10.795Z,7.5
2018-03-17T09:03:12.270Z,7.5
2018-03-17T09:04:13.662Z,7.3
2018-03-17T09:05:15.079Z,7.5
2018-03-17T09:06:16.465Z,7.4
2018-03-17T09:07:17.863Z,7.5
2018-03-17T09:08:19.252Z,7.6
2018-03-17T09:09:20.652Z,7.8
2018-03-17T09:10:22.052Z,7.8
2018-03-17T09:11:23.453Z,7.6
2018-03-17T09:12:24.851Z,7.5
2018-03-17T09:13:26.242Z,7.4
2018-03-17T09:14:27.636Z,7.4
2018-03-17T09:15:29.099Z,7.5
2018-03-17T09:16:30.502Z,7.6
2018-03-17T09:17:31.896Z,7.6
2018-03-17T09:18:33.292Z,7.4
2018-03-17T09:19:34.695Z,7.6
2018-03-17T09:20:36.092Z,7.6
2018-03-17T09:21:37.510Z,7.5
2018-03-17T09:22:38.906Z,7.6
2018-03-17T09:23:40.306Z,7.6
2018-03-17T09:24:41.697Z,7.5
2018-03-17T09:25:43.092Z,7.5
2018-03-17T09:26:44.567Z,7.4
2018-03-17T09:27:45.861Z,7.3
2018-03-17T09:28:47.253Z,7.4
2018-03-17T09:29:48.664Z,7.4
2018-03-17T09:30:50.072Z,7.5
2018-03-17T09:31:51.458Z,7.5
2018-03-17T09:32:52.855Z,7.6
2018-03-17T09:33:54.245Z,7.6
2018-03-17T09:34:55.646Z,7.5
2018-03-17T09:35:57.041Z,7.5
2018-03-17T09:36:58.450Z,7.3
2018-03-17T09:37:59.845Z,7.4
2018-03-17T09:39:01.234Z,7.4
2018-03-17T09:40:02.637Z,7.4
2018-03-17T09:41:04.035Z,7.5
2018-03-17T09:42:05.435Z,7.5
2018-03-17T09:43:06.837Z,7.6
2018-03-17T09:44:08.223Z,7.5
2018-03-17T09:45:09.655Z,7.5
2018-03-17T09:46:11.009Z,7.8
2018-03-17T09:47:12.480Z,8.0
2018-03-17T09:48:13.864Z,8.0
2018-03-17T09:49:15.268Z,8.0
2018-03-17T09:50:16.653Z,7.8
2018-03-17T09:51:18.077Z,7.8
2018-03-17T09:52:19.511Z,7.8
2018-03-17T09:53:20.923Z,7.6
2018-03-17T09:54:22.315Z,7.8
2018-03-17T09:55:23.722Z,7.8
2018-03-17T09:56:25.192Z,7.5
2018-03-17T09:57:26.608Z,7.6
2018-03-17T09:58:28.017Z,7.6
2018-03-17T09:59:29.415Z,7.7
2018-03-17T10:00:30.816Z,7.7
2018-03-17T10:01:32.220Z,7.8
2018-03-17T10:02:33.605Z,7.8
2018-03-17T10:03:35.003Z,8.0
2018-03-17T10:04:36.397Z,8.0
2018-03-17T10:05:37.801Z,7.9
2018-03-17T10:06:39.205Z,7.9
2018-03-17T10:07:40.707Z,8.1
2018-03-17T10:08:42.101Z,7.9
2018-03-17T10:09:43.501Z,7.9
2018-03-17T10:10:44.910Z,7.8
2018-03-17T10:11:46.320Z,7.8
2018-03-17T10:12:47.731Z,7.7
2018-03-17T10:13:49.140Z,7.9
2018-03-17T10:14:50.554Z,7.8
2018-03-17T10:15:51.944Z,7.9
2018-03-17T10:16:53.336Z,8.1
2018-03-17T10:17:54.733Z,8.1
2018-03-17T10:18:56.133Z,7.9
2018-03-17T10:19:57.536Z,7.9
2018-03-17T10:20:58.936Z,7.9
2018-03-17T10:22:00.338Z,7.7
2018-03-17T10:23:01.740Z,7.6
2018-03-17T10:24:03.136Z,7.7
2018-03-17T10:25:04.541Z,7.7
2018-03-17T10:26:05.922Z,7.5
2018-03-17T10:27:07.318Z,7.6
2018-03-17T10:28:08.803Z,7.6
2018-03-17T10:29:10.192Z,7.5
2018-03-17T10:30:11.644Z,7.4
2018-03-17T10:31:13.046Z,7.4
2018-03-17T10:32:14.439Z,7.4
2018-03-17T10:33:15.838Z,7.5
2018-03-17T10:34:17.289Z,7.2
2018-03-17T10:35:18.646Z,7.3
2018-03-17T10:36:20.096Z,7.3
2018-03-17T10:37:21.445Z,7.3
2018-03-17T10:38:22.873Z,7.4
2018-03-17T10:39:24.354Z,7.4
2018-03-17T10:40:25.759Z,7.6
2018-03-17T10:41:27.180Z,7.6
2018-03-17T10:42:28.578Z,7.3
2018-03-17T10:43:29.995Z,7.5
2018-03-17T10:44:31.394Z,7.4
2018-03-17T10:45:32.804Z,7.3
2018-03-17T10:46:34.197Z,7.4
2018-03-17T10:47:35.585Z,7.4
2018-03-17T10:48:36.979Z,7.4
2018-03-17T10:49:38.393Z,7.4
2018-03-17T10:50:39.792Z,7.3
2018-03-17T10:51:41.190Z,7.4
2018-03-17T10:52:42.582Z,7.4
2018-03-17T10:53:43.975Z,7.5
2018-03-17T10:54:45.368Z,7.6
2018-03-17T10:55:46.788Z,7.6
2018-03-17T10:56:48.179Z,7.6
2018-03-17T10:57:49.570Z,7.8
2018-03-17T10:58:50.973Z,7.7
2018-03-17T10:59:52.430Z,7.9
2018-03-17T11:00:53.890Z,7.8
2018-03-17T11:01:55.239Z,7.9
2018-03-17T11:02:56.641Z,7.6
2018-03-17T11:03:58.040Z,7.7
2018-03-17T11:04:59.437Z,7.6
2018-03-17T11:06:00.872Z,7.8
2018-03-17T11:07:02.251Z,7.8
2018-03-17T11:08:03.667Z,7.9
2018-03-17T11:09:05.075Z,7.9
2018-03-17T11:10:06.496Z,7.9
2018-03-17T11:11:07.974Z,7.8
2018-03-17T11:12:09.370Z,7.8
2018-03-17T11:13:10.774Z,7.6
2018-03-17T11:14:12.198Z,7.7
2018-03-17T11:15:13.595Z,7.5
2018-03-17T11:16:14.996Z,7.6
2018-03-17T11:17:16.397Z,7.5
2018-03-17T11:18:17.789Z,7.5
2018-03-17T11:19:19.193Z,7.6
2018-03-17T11:20:20.625Z,7.5
2018-03-17T11:21:22.017Z,7.5
2018-03-17T11:22:23.411Z,7.3
2018-03-17T11:24:04.323Z,7.5
2018-03-17T11:25:05.821Z,7.4
2018-03-17T11:26:07.218Z,7.5
2018-03-17T11:27:08.647Z,7.5
2018-03-17T11:28:09.992Z,7.4
2018-03-17T11:29:11.462Z,7.4
2018-03-17T11:30:12.868Z,7.4
2018-03-17T11:31:14.252Z,7.4
2018-03-17T11:32:15.643Z,7.4
2018-03-17T11:33:17.069Z,7.5
2018-03-17T11:34:18.484Z,7.4
2018-03-17T11:35:19.889Z,7.2
2018-03-17T11:36:21.270Z,7.3
2018-03-17T11:37:22.682Z,7.2
2018-03-17T11:38:24.077Z,7.3
2018-03-17T11:39:25.583Z,7.3
2018-03-17T11:40:26.977Z,7.4
2018-03-17T11:41:28.364Z,7.4
2018-03-17T11:42:29.786Z,7.2
2018-03-17T11:43:31.194Z,7.4
2018-03-17T11:44:32.598Z,7.6
2018-03-17T11:45:33.988Z,7.5
2018-03-17T11:46:35.412Z,7.3
2018-03-17T11:47:36.839Z,7.3
2018-03-17T11:48:38.241Z,7.5
2018-03-17T11:49:39.657Z,7.5
2018-03-17T11:50:41.130Z,7.4
2018-03-17T11:51:42.538Z,7.3
2018-03-17T11:52:43.938Z,7.4
2018-03-17T11:53:45.332Z,7.5
2018-03-17T11:54:46.726Z,7.4
2018-03-17T11:55:48.141Z,7.3
2018-03-17T11:56:49.542Z,7.4
2018-03-17T11:57:50.960Z,7.4
2018-03-17T11:58:52.351Z,7.4
2018-03-17T11:59:53.782Z,7.5
2018-03-17T12:00:55.173Z,7.6
2018-03-17T12:01:56.571Z,7.4
2018-03-17T12:02:57.985Z,7.3
2018-03-17T12:03:59.408Z,7.3
2018-03-17T12:05:00.802Z,7.5
2018-03-17T12:06:02.207Z,7.2
2018-03-17T12:07:03.647Z,7.2
2018-03-17T12:08:05.072Z,7.3
2018-03-17T12:09:06.468Z,7.4
2018-03-17T12:10:07.904Z,7.4
2018-03-17T12:11:09.326Z,7.5
2018-03-17T12:12:10.726Z,7.6
2018-03-17T12:13:12.114Z,7.4
2018-03-17T12:14:13.516Z,7.4
2018-03-17T12:15:14.902Z,7.6
2018-03-17T12:16:16.306Z,7.4
2018-03-17T12:17:17.692Z,7.4
2018-03-17T12:18:19.095Z,7.2
2018-03-17T12:19:20.479Z,7.3
2018-03-17T12:20:21.867Z,7.3
2018-03-17T12:21:23.271Z,7.4
2018-03-17T12:22:24.741Z,7.3
2018-03-17T12:23:26.111Z,7.4
2018-03-17T12:24:27.498Z,7.4
2018-03-17T12:25:28.907Z,7.4
2018-03-17T12:26:30.318Z,7.6
2018-03-17T12:27:31.717Z,7.6
2018-03-17T12:28:33.128Z,7.6
2018-03-17T12:29:34.516Z,7.4
2018-03-17T12:30:35.917Z,7.4
2018-03-17T12:31:37.338Z,7.5
2018-03-17T12:32:38.754Z,7.3
2018-03-17T12:33:40.170Z,7.3
2018-03-17T12:34:41.582Z,7.6
2018-03-17T12:35:42.991Z,7.5
2018-03-17T12:36:44.401Z,7.6
2018-03-17T12:37:45.802Z,7.5
2018-03-17T12:38:47.190Z,7.7
2018-03-17T12:39:48.593Z,7.5
2018-03-17T12:40:49.991Z,7.5
2018-03-17T12:41:51.389Z,7.4
2018-03-17T12:42:52.872Z,7.3
2018-03-17T12:43:54.269Z,7.2
2018-03-17T12:44:55.658Z,7.2
2018-03-17T12:45:57.060Z,7.0
2018-03-17T12:46:58.461Z,7.1
2018-03-17T12:47:59.871Z,7.1
2018-03-17T12:49:01.262Z,7.1
2018-03-17T12:50:02.663Z,7.1
2018-03-17T12:51:04.078Z,7.2
2018-03-17T12:52:05.497Z,7.3
2018-03-17T12:53:06.900Z,7.1
2018-03-17T12:54:08.305Z,7.0
2018-03-17T12:55:09.704Z,7.0
2018-03-17T12:56:11.119Z,7.1
2018-03-17T12:57:12.507Z,7.0
2018-03-17T12:58:13.902Z,7.2
2018-03-17T12:59:15.292Z,7.0
2018-03-17T13:00:16.701Z,7.0
2018-03-17T13:01:18.105Z,7.1
2018-03-17T13:02:19.498Z,7.1
2018-03-17T13:03:20.966Z,7.0
2018-03-17T13:04:22.360Z,7.0
2018-03-17T13:05:23.757Z,7.1
2018-03-17T13:06:25.152Z,7.0
2018-03-17T13:07:26.557Z,7.0
2018-03-17T13:08:27.949Z,6.9
2018-03-17T13:09:29.354Z,7.1
2018-03-17T13:10:30.753Z,7.1
2018-03-17T13:11:32.155Z,7.0
2018-03-17T13:12:33.550Z,6.9
2018-03-17T13:13:34.947Z,6.8
2018-03-17T13:14:36.349Z,6.8
2018-03-17T13:15:37.754Z,6.9
2018-03-17T13:16:39.165Z,7.0
2018-03-17T13:17:40.559Z,6.8
2018-03-17T13:18:41.952Z,6.8
2018-03-17T13:19:43.352Z,6.9
2018-03-17T13:20:44.739Z,6.9
2018-03-17T13:21:46.139Z,6.9
2018-03-17T13:22:47.529Z,7.0
2018-03-17T13:23:49.019Z,6.8
2018-03-17T13:24:50.426Z,7.0
2018-03-17T13:25:51.850Z,7.0
2018-03-17T13:26:53.241Z,6.8
2018-03-17T13:27:54.638Z,6.8
2018-03-17T13:28:56.028Z,6.8
2018-03-17T13:29:57.428Z,6.8
2018-03-17T13:30:58.830Z,6.9
2018-03-17T13:32:00.225Z,6.7
2018-03-17T13:33:01.708Z,6.8
2018-03-17T13:34:03.016Z,6.6
2018-03-17T13:35:04.483Z,6.6
2018-03-17T13:36:05.882Z,6.6
2018-03-17T13:37:07.285Z,6.7
2018-03-17T13:38:08.677Z,6.7
2018-03-17T13:39:10.083Z,6.7
2018-03-17T13:40:11.511Z,6.7
2018-03-17T13:41:12.912Z,6.7
2018-03-17T13:42:14.311Z,6.8
2018-03-17T13:43:15.716Z,6.8
2018-03-17T13:44:17.117Z,6.6
2018-03-17T13:45:18.508Z,6.6
2018-03-17T13:46:19.952Z,6.6
2018-03-17T13:47:21.337Z,6.6
2018-03-17T13:48:22.738Z,6.6
2018-03-17T13:49:24.139Z,6.7
2018-03-17T13:50:25.582Z,6.6
2018-03-17T13:52:06.971Z,6.4
2018-03-17T13:53:08.387Z,6.4
2018-03-17T13:54:09.871Z,6.4
2018-03-17T13:55:11.320Z,6.3
2018-03-17T13:56:12.708Z,6.4
2018-03-17T13:57:14.109Z,6.6
2018-03-17T13:58:15.502Z,6.6
2018-03-17T13:59:16.897Z,6.6
2018-03-17T14:00:18.301Z,6.8
2018-03-17T14:01:19.696Z,6.6
2018-03-17T14:02:21.131Z,6.5
2018-03-17T14:03:22.488Z,6.6
2018-03-17T14:04:23.875Z,6.5
2018-03-17T14:05:25.364Z,6.5
2018-03-17T14:06:26.756Z,6.5
2018-03-17T14:07:28.152Z,6.4
2018-03-17T14:08:29.541Z,6.4